createdAt,value
2019-05-21T00:01:47.498Z,13.90
2019-05-21T00:04:27.917Z,13.80
2019-05-21T00:06:46.225Z,13.70
2019-05-21T00:09:14.637Z,13.70
2019-05-21T00:11:43.124Z,13.70
2019-05-21T00:14:11.631Z,13.60
2019-05-21T00:16:40.118Z,13.50
2019-05-21T00:19:08.557Z,13.30
2019-05-21T00:21:37.055Z,13.30
2019-05-21T00:24:05.481Z,13.30
2019-05-21T00:26:33.984Z,13.30
2019-05-21T00:29:38.120Z,13.20
2019-05-21T00:32:42.052Z,13.10
2019-05-21T00:35:49.551Z,13.00
2019-05-21T00:38:54.468Z,12.90
2019-05-21T00:41:59.283Z,13.00
2019-05-21T00:44:27.805Z,12.90
2019-05-21T00:46:56.241Z,12.90
2019-05-21T00:49:25.121Z,12.80
2019-05-21T00:52:06.501Z,12.80
2019-05-21T00:54:24.645Z,12.80
2019-05-21T00:56:53.069Z,12.80
2019-05-21T00:59:21.571Z,12.80
2019-05-21T01:01:50.085Z,12.80
2019-05-21T01:04:18.576Z,12.70
2019-05-21T01:06:46.901Z,12.70
2019-05-21T01:09:15.494Z,12.70
2019-05-21T01:11:43.929Z,12.60
2019-05-21T01:14:12.418Z,12.60
2019-05-21T01:16:40.881Z,12.50
2019-05-21T01:19:09.393Z,12.50
2019-05-21T01:21:37.834Z,12.50
2019-05-21T01:24:06.329Z,12.50
2019-05-21T01:26:34.874Z,12.50
2019-05-21T01:29:03.409Z,12.50
2019-05-21T01:31:31.813Z,12.50
2019-05-21T01:34:00.212Z,12.50
2019-05-21T01:36:28.757Z,12.40
2019-05-21T01:38:57.675Z,12.40
2019-05-21T01:41:26.122Z,12.30
2019-05-21T01:43:54.585Z,12.40
2019-05-21T01:46:23.046Z,12.30
2019-05-21T01:48:51.553Z,12.30
2019-05-21T01:51:19.989Z,12.30
2019-05-21T01:53:48.737Z,12.30
2019-05-21T01:56:17.688Z,12.30
2019-05-21T01:58:46.118Z,12.30
2019-05-21T02:01:15.001Z,12.20
2019-05-21T02:03:43.433Z,12.20
2019-05-21T02:06:11.929Z,12.20
2019-05-21T02:08:40.424Z,12.20
2019-05-21T02:11:08.901Z,12.20
2019-05-21T02:13:37.331Z,12.30
2019-05-21T02:16:06.632Z,12.30
2019-05-21T02:18:35.060Z,12.40
2019-05-21T02:21:03.660Z,12.50
2019-05-21T02:23:32.132Z,12.60
2019-05-21T02:26:00.734Z,12.70
2019-05-21T02:28:29.198Z,12.80
2019-05-21T02:30:58.370Z,12.80
2019-05-21T02:33:26.708Z,12.80
2019-05-21T02:35:55.316Z,12.70
2019-05-21T02:38:24.335Z,12.70
2019-05-21T02:40:52.808Z,12.80
2019-05-21T02:43:21.232Z,12.80
2019-05-21T02:45:49.719Z,12.80
2019-05-21T02:48:18.148Z,12.80
2019-05-21T02:57:50.208Z,12.80
2019-05-21T03:00:39.200Z,12.80
2019-05-21T03:03:08.899Z,12.80
2019-05-21T03:05:37.497Z,12.90
2019-05-21T03:08:05.929Z,12.90
2019-05-21T03:10:34.425Z,12.90
2019-05-21T03:13:02.861Z,12.80
2019-05-21T03:15:31.353Z,12.60
2019-05-21T03:17:59.791Z,12.50
2019-05-21T03:20:28.298Z,12.50
2019-05-21T03:22:56.891Z,12.40
2019-05-21T03:25:25.366Z,12.30
2019-05-21T03:27:53.797Z,12.20
2019-05-21T03:30:22.390Z,12.10
2019-05-21T03:32:50.838Z,12.10
2019-05-21T03:35:19.430Z,12.10
2019-05-21T03:37:47.931Z,12.00
2019-05-21T03:40:16.536Z,12.00
2019-05-21T03:42:45.018Z,11.90
2019-05-21T03:45:13.649Z,11.90
2019-05-21T03:47:42.145Z,11.90
2019-05-21T03:50:10.612Z,11.90
2019-05-21T03:52:39.571Z,11.90
2019-05-21T03:55:08.107Z,11.90
2019-05-21T03:57:36.600Z,11.80
2019-05-21T04:00:06.399Z,11.80
2019-05-21T04:02:35.450Z,11.70
2019-05-21T04:05:04.611Z,11.70
2019-05-21T04:07:33.594Z,11.70
2019-05-21T04:10:02.053Z,11.60
2019-05-21T04:12:30.663Z,11.60
2019-05-21T04:15:03.542Z,11.50
2019-05-21T04:17:42.527Z,11.50
2019-05-21T04:20:11.606Z,11.40
2019-05-21T04:22:52.125Z,11.30
2019-05-21T04:25:21.584Z,11.30
2019-05-21T04:27:50.066Z,11.30
2019-05-21T04:30:18.512Z,11.20
2019-05-21T04:32:47.292Z,11.30
2019-05-21T04:35:16.144Z,11.30
2019-05-21T04:37:44.697Z,11.20
2019-05-21T04:40:13.178Z,11.20
2019-05-21T04:42:41.561Z,11.20
2019-05-21T04:45:11.241Z,11.20
2019-05-21T04:47:41.687Z,11.20
2019-05-21T04:50:10.114Z,11.20
2019-05-21T04:52:38.608Z,11.20
2019-05-21T04:55:07.248Z,11.20
2019-05-21T04:57:37.432Z,11.30
2019-05-21T05:00:06.836Z,11.30
2019-05-21T05:02:35.419Z,11.30
2019-05-21T05:05:04.053Z,11.30
2019-05-21T05:07:35.569Z,11.40
2019-05-21T05:10:14.200Z,11.40
2019-05-21T05:12:47.736Z,11.50
2019-05-21T05:15:17.169Z,11.50
2019-05-21T05:17:46.958Z,11.60
2019-05-21T05:20:31.297Z,11.70
2019-05-21T05:23:02.111Z,11.80
2019-05-21T05:25:31.069Z,11.80
2019-05-21T05:28:19.773Z,11.90
2019-05-21T05:30:48.905Z,12.10
2019-05-21T05:33:18.175Z,12.20
2019-05-21T05:35:46.582Z,12.30
2019-05-21T05:38:15.488Z,12.60
2019-05-21T05:40:46.709Z,12.80
2019-05-21T05:43:20.627Z,13.10
2019-05-21T05:45:49.195Z,13.50
2019-05-21T05:48:21.188Z,13.80
2019-05-21T05:50:52.309Z,14.10
2019-05-21T05:53:20.797Z,14.50
2019-05-21T05:55:49.136Z,15.00
2019-05-21T05:58:17.628Z,15.60
2019-05-21T06:00:46.066Z,16.20
2019-05-21T06:03:14.545Z,16.80
2019-05-21T06:05:43.028Z,17.50
2019-05-21T06:08:12.468Z,18.00
2019-05-21T06:10:41.333Z,18.50
2019-05-21T06:13:10.139Z,19.00
2019-05-21T06:15:39.310Z,19.40
2019-05-21T06:18:08.120Z,20.00
2019-05-21T06:20:37.081Z,20.40
2019-05-21T06:23:07.481Z,20.80
2019-05-21T06:25:37.006Z,21.20
2019-05-21T06:28:05.764Z,21.60
2019-05-21T06:30:34.733Z,22.00
2019-05-21T06:33:03.282Z,22.30
2019-05-21T06:35:32.210Z,22.70
2019-05-21T06:38:16.682Z,22.90
2019-05-21T06:40:30.902Z,23.20
2019-05-21T06:42:59.296Z,23.50
2019-05-21T06:45:27.709Z,23.80
2019-05-21T06:47:56.718Z,23.90
2019-05-21T06:50:25.146Z,24.20
2019-05-21T06:52:53.577Z,24.40
2019-05-21T06:55:22.069Z,24.50
2019-05-21T06:57:50.585Z,24.60
2019-05-21T07:00:19.922Z,24.90
2019-05-21T07:02:48.354Z,25.10
2019-05-21T07:05:16.963Z,25.20
2019-05-21T07:07:45.462Z,25.30
2019-05-21T07:10:14.432Z,25.40
2019-05-21T07:12:42.865Z,25.60
2019-05-21T07:15:11.399Z,25.70
2019-05-21T07:17:39.900Z,25.80
2019-05-21T07:20:08.647Z,25.90
2019-05-21T07:22:37.190Z,26.10
2019-05-21T07:25:06.279Z,26.20
2019-05-21T07:27:34.861Z,26.20
2019-05-21T07:30:03.788Z,26.20
2019-05-21T07:32:32.136Z,26.00
2019-05-21T07:35:00.642Z,26.30
2019-05-21T07:37:29.171Z,26.30
2019-05-21T07:39:57.775Z,26.30
2019-05-21T07:42:26.478Z,26.50
2019-05-21T07:44:54.974Z,26.50
2019-05-21T07:47:23.394Z,26.50
2019-05-21T07:49:51.899Z,26.60
2019-05-21T07:52:20.330Z,26.80
2019-05-21T07:54:48.893Z,26.80
2019-05-21T07:57:17.332Z,26.90
2019-05-21T07:59:45.735Z,26.90
2019-05-21T08:02:14.162Z,26.90
2019-05-21T08:04:43.118Z,26.80
2019-05-21T08:07:11.558Z,26.90
2019-05-21T08:09:40.061Z,26.80
2019-05-21T08:12:27.782Z,26.70
2019-05-21T08:14:38.787Z,26.80
2019-05-21T08:17:07.206Z,26.60
2019-05-21T08:19:35.693Z,26.50
2019-05-21T08:22:04.126Z,26.30
2019-05-21T08:24:32.637Z,26.30
2019-05-21T08:27:01.084Z,26.20
2019-05-21T08:29:29.754Z,26.20
2019-05-21T08:31:58.593Z,26.10
2019-05-21T08:34:27.025Z,26.20
2019-05-21T08:37:14.677Z,26.10
2019-05-21T08:39:43.588Z,26.40
2019-05-21T08:42:12.091Z,26.00
2019-05-21T08:44:40.521Z,26.00
2019-05-21T08:47:09.000Z,25.90
2019-05-21T08:49:37.490Z,25.70
2019-05-21T08:52:05.980Z,25.70
2019-05-21T08:54:46.677Z,25.70
2019-05-21T08:57:15.199Z,25.50
2019-05-21T08:59:43.626Z,25.40
2019-05-21T09:02:12.229Z,25.40
2019-05-21T09:04:46.263Z,25.30
2019-05-21T09:07:11.054Z,25.30
2019-05-21T09:09:49.747Z,25.40
2019-05-21T09:12:09.779Z,25.40
2019-05-21T09:14:38.197Z,25.60
2019-05-21T09:17:06.688Z,25.60
2019-05-21T09:19:36.569Z,25.60
2019-05-21T09:22:05.540Z,25.50
2019-05-21T09:24:34.047Z,25.40
2019-05-21T09:27:02.535Z,25.20
2019-05-21T09:29:30.978Z,25.10
2019-05-21T09:31:59.464Z,24.80
2019-05-21T09:34:27.991Z,24.80
2019-05-21T09:36:57.013Z,25.00
2019-05-21T09:39:25.505Z,25.10
2019-05-21T09:41:53.998Z,25.50
2019-05-21T09:44:22.489Z,25.90
2019-05-21T09:46:51.588Z,26.30
2019-05-21T09:49:20.044Z,26.60
2019-05-21T09:51:48.469Z,26.60
2019-05-21T09:54:16.965Z,26.50
2019-05-21T09:56:45.890Z,26.30
2019-05-21T09:59:39.753Z,26.30
2019-05-21T10:02:12.546Z,26.30
2019-05-21T10:04:41.093Z,26.00
2019-05-21T10:07:09.797Z,25.60
2019-05-21T10:09:38.242Z,25.20
2019-05-21T10:12:06.882Z,24.90
2019-05-21T10:14:35.380Z,24.80
2019-05-21T10:17:03.808Z,25.20
2019-05-21T10:19:32.229Z,25.40
2019-05-21T10:22:01.252Z,25.70
2019-05-21T10:24:29.702Z,26.10
2019-05-21T10:26:58.622Z,26.30
2019-05-21T10:29:27.141Z,26.50
2019-05-21T10:31:55.613Z,26.30
2019-05-21T10:34:24.114Z,26.30
2019-05-21T10:36:52.597Z,26.20
2019-05-21T10:39:21.246Z,25.90
2019-05-21T10:41:49.685Z,25.70
2019-05-21T10:44:18.157Z,25.40
2019-05-21T10:46:46.605Z,25.30
2019-05-21T10:49:15.113Z,25.60
2019-05-21T10:51:43.545Z,25.60
2019-05-21T10:54:12.040Z,25.50
2019-05-21T10:56:47.760Z,25.40
2019-05-21T10:59:10.763Z,25.20
2019-05-21T11:01:52.768Z,25.00
2019-05-21T11:04:34.861Z,24.80
2019-05-21T11:07:03.391Z,24.60
2019-05-21T11:09:31.879Z,24.60
2019-05-21T11:12:00.314Z,24.50
2019-05-21T11:14:28.811Z,24.50
2019-05-21T11:16:57.345Z,24.40
2019-05-21T11:19:25.875Z,24.50
2019-05-21T11:21:54.889Z,24.50
2019-05-21T11:24:23.739Z,24.50
2019-05-21T11:26:52.236Z,24.50
2019-05-21T11:29:20.675Z,24.70
2019-05-21T11:31:57.248Z,25.20
2019-05-21T11:34:19.457Z,25.70
2019-05-21T11:36:47.929Z,26.00
2019-05-21T11:39:16.508Z,26.00
2019-05-21T11:41:45.624Z,25.80
2019-05-21T11:44:14.309Z,25.40
2019-05-21T11:46:42.797Z,25.00
2019-05-21T11:49:11.229Z,24.80
2019-05-21T11:51:40.075Z,24.50
2019-05-21T11:54:08.500Z,24.30
2019-05-21T11:56:37.002Z,24.20
2019-05-21T11:59:05.434Z,24.10
2019-05-21T12:01:34.017Z,24.10
2019-05-21T12:04:02.890Z,24.20
2019-05-21T12:06:31.486Z,24.20
2019-05-21T12:08:59.917Z,24.30
2019-05-21T12:11:28.425Z,24.40
2019-05-21T12:13:56.856Z,24.40
2019-05-21T12:16:25.339Z,24.30
2019-05-21T12:18:53.765Z,24.40
2019-05-21T12:21:22.248Z,24.40
2019-05-21T12:23:50.678Z,24.50
2019-05-21T12:26:19.173Z,24.70
2019-05-21T12:28:47.605Z,24.90
2019-05-21T12:31:16.158Z,25.20
2019-05-21T12:33:44.600Z,25.20
2019-05-21T12:36:13.851Z,25.20
2019-05-21T12:38:42.449Z,25.00
2019-05-21T12:41:13.563Z,24.80
2019-05-21T12:43:41.729Z,24.60
2019-05-21T12:46:10.156Z,24.40
2019-05-21T12:48:38.716Z,24.20
2019-05-21T12:51:07.157Z,24.00
2019-05-21T12:53:36.097Z,23.90
2019-05-21T12:56:04.529Z,23.80
2019-05-21T12:58:33.028Z,23.80
2019-05-21T13:01:01.513Z,23.80
2019-05-21T13:03:30.086Z,23.60
2019-05-21T13:05:58.511Z,23.70
2019-05-21T13:08:27.004Z,23.70
2019-05-21T13:10:55.802Z,23.70
2019-05-21T13:13:24.293Z,23.80
2019-05-21T13:15:52.730Z,23.90
2019-05-21T13:18:21.219Z,24.20
2019-05-21T13:20:49.659Z,24.40
2019-05-21T13:23:18.527Z,24.70
2019-05-21T13:25:47.037Z,25.00
2019-05-21T13:28:15.567Z,25.30
2019-05-21T13:30:44.088Z,25.60
2019-05-21T13:33:12.589Z,25.70
2019-05-21T13:35:41.068Z,25.90
2019-05-21T13:38:13.323Z,26.00
2019-05-21T13:40:40.065Z,26.10
2019-05-21T13:43:08.946Z,26.20
2019-05-21T13:45:37.367Z,26.20
2019-05-21T13:48:06.070Z,26.10
2019-05-21T13:50:34.506Z,26.10
2019-05-21T13:53:03.001Z,26.10
2019-05-21T13:55:33.968Z,26.10
2019-05-21T13:58:01.755Z,26.10
2019-05-21T14:00:34.009Z,26.20
2019-05-21T14:03:02.808Z,26.20
2019-05-21T14:05:31.228Z,25.90
2019-05-21T14:08:00.224Z,25.70
2019-05-21T14:10:29.156Z,25.50
2019-05-21T14:12:57.648Z,25.30
2019-05-21T14:15:25.982Z,25.20
2019-05-21T14:17:54.418Z,25.10
2019-05-21T14:20:23.085Z,25.20
2019-05-21T14:22:51.521Z,25.20
2019-05-21T14:25:20.009Z,25.30
2019-05-21T14:27:48.439Z,25.40
2019-05-21T14:30:17.137Z,25.40
2019-05-21T14:32:45.702Z,25.40
2019-05-21T14:35:14.193Z,25.40
2019-05-21T14:37:42.625Z,25.30
2019-05-21T14:40:11.900Z,25.20
2019-05-21T14:42:40.405Z,25.30
2019-05-21T14:45:09.819Z,25.30
2019-05-21T14:55:04.889Z,25.30
2019-05-21T14:57:33.757Z,25.00
2019-05-21T15:00:04.041Z,25.00
2019-05-21T15:02:32.468Z,25.00
2019-05-21T15:05:00.968Z,25.00
2019-05-21T15:07:29.401Z,25.10
2019-05-21T15:09:57.905Z,25.20
2019-05-21T15:12:26.352Z,25.20
2019-05-21T15:14:54.898Z,25.20
2019-05-21T15:17:23.321Z,25.20
2019-05-21T15:19:54.266Z,25.20
2019-05-21T15:22:22.706Z,25.20
2019-05-21T15:24:51.186Z,25.20
2019-05-21T15:27:20.061Z,25.20
2019-05-21T15:29:48.592Z,25.20
2019-05-21T15:32:17.082Z,25.20
2019-05-21T15:34:45.566Z,25.20
2019-05-21T15:37:14.007Z,25.10
2019-05-21T15:39:42.573Z,25.10
2019-05-21T15:42:11.069Z,25.10
2019-05-21T15:44:39.498Z,25.00
2019-05-21T15:47:07.981Z,25.00
2019-05-21T15:49:37.191Z,25.00
2019-05-21T15:52:06.125Z,25.00
2019-05-21T15:54:34.558Z,25.00
2019-05-21T15:57:03.052Z,24.90
2019-05-21T15:59:31.992Z,24.90
2019-05-21T16:02:00.472Z,24.90
2019-05-21T16:04:28.914Z,24.80
2019-05-21T16:06:57.405Z,24.80
2019-05-21T16:09:26.005Z,24.80
2019-05-21T16:11:54.498Z,24.80
2019-05-21T16:14:22.918Z,24.70
2019-05-21T16:16:51.412Z,24.60
2019-05-21T16:19:19.842Z,24.50
2019-05-21T16:21:48.318Z,24.60
2019-05-21T16:24:16.742Z,24.60
2019-05-21T16:26:45.228Z,24.60
2019-05-21T16:29:13.658Z,24.60
2019-05-21T16:31:42.154Z,24.50
2019-05-21T16:34:10.585Z,24.40
2019-05-21T16:36:39.077Z,24.20
2019-05-21T16:39:08.202Z,24.10
2019-05-21T16:41:44.601Z,23.90
2019-05-21T16:44:07.016Z,23.80
2019-05-21T16:46:35.887Z,23.80
2019-05-21T16:49:04.409Z,23.80
2019-05-21T16:51:32.904Z,23.70
2019-05-21T16:54:01.324Z,23.60
2019-05-21T16:56:30.365Z,23.50
2019-05-21T16:58:58.869Z,23.40
2019-05-21T17:01:28.253Z,23.30
2019-05-21T17:03:59.828Z,23.20
2019-05-21T17:06:27.116Z,23.20
2019-05-21T17:08:55.549Z,23.00
2019-05-21T17:11:24.142Z,23.00
2019-05-21T17:13:52.584Z,22.90
2019-05-21T17:16:21.374Z,23.00
2019-05-21T17:18:49.852Z,23.00
2019-05-21T17:21:18.292Z,23.00
2019-05-21T17:23:46.781Z,23.00
2019-05-21T17:26:15.196Z,23.00
2019-05-21T17:28:44.545Z,23.00
2019-05-21T17:31:13.386Z,23.00
2019-05-21T17:33:42.149Z,23.00
2019-05-21T17:36:10.969Z,22.90
2019-05-21T17:38:39.465Z,22.90
2019-05-21T17:41:07.956Z,22.90
2019-05-21T17:43:36.505Z,22.80
2019-05-21T17:46:05.045Z,22.80
2019-05-21T17:48:33.974Z,22.70
2019-05-21T17:51:02.410Z,22.80
2019-05-21T17:53:30.800Z,22.70
2019-05-21T17:55:59.424Z,22.70
2019-05-21T17:58:28.369Z,22.60
2019-05-21T18:01:00.433Z,22.60
2019-05-21T18:03:29.392Z,22.50
2019-05-21T18:05:57.837Z,22.50
2019-05-21T18:08:26.842Z,22.50
2019-05-21T18:10:55.986Z,22.50
2019-05-21T18:13:25.288Z,22.40
2019-05-21T18:15:54.021Z,22.40
2019-05-21T18:18:23.209Z,22.40
2019-05-21T18:20:51.626Z,22.30
2019-05-21T18:23:20.376Z,22.20
2019-05-21T18:25:48.807Z,22.20
2019-05-21T18:28:17.294Z,22.10
2019-05-21T18:30:46.232Z,22.10
2019-05-21T18:33:15.522Z,22.00
2019-05-21T18:35:45.400Z,21.90
2019-05-21T18:38:14.120Z,21.90
2019-05-21T18:40:42.629Z,21.80
2019-05-21T18:43:11.635Z,21.70
2019-05-21T18:45:40.109Z,21.50
2019-05-21T18:48:09.034Z,21.50
2019-05-21T18:50:37.899Z,21.50
2019-05-21T18:53:08.693Z,21.40
2019-05-21T18:55:43.625Z,21.40
2019-05-21T18:58:17.856Z,21.30
2019-05-21T19:00:57.901Z,21.30
2019-05-21T19:03:39.087Z,21.20
2019-05-21T19:06:10.268Z,21.20
2019-05-21T19:08:46.725Z,21.10
2019-05-21T19:11:17.286Z,21.10
2019-05-21T19:13:53.253Z,21.00
2019-05-21T19:16:25.448Z,21.00
2019-05-21T19:19:03.536Z,20.90
2019-05-21T19:21:38.905Z,20.80
2019-05-21T19:24:10.737Z,20.80
2019-05-21T19:27:05.800Z,20.80
2019-05-21T19:29:34.780Z,20.70
2019-05-21T19:32:06.446Z,20.60
2019-05-21T19:34:39.722Z,20.50
2019-05-21T19:37:10.280Z,20.50
2019-05-21T19:39:39.285Z,20.40
2019-05-21T19:42:15.282Z,20.40
2019-05-21T19:44:46.068Z,20.30
2019-05-21T19:47:17.112Z,20.30
2019-05-21T19:49:47.465Z,20.20
2019-05-21T19:52:21.050Z,20.10
2019-05-21T19:54:51.037Z,20.10
2019-05-21T19:57:26.943Z,20.00
2019-05-21T20:00:01.005Z,19.90
2019-05-21T20:02:30.541Z,19.80
2019-05-21T20:05:08.791Z,19.70
2019-05-21T20:07:50.143Z,19.70
2019-05-21T20:10:28.723Z,19.60
2019-05-21T20:13:07.394Z,19.50
2019-05-21T20:15:40.857Z,19.50
2019-05-21T20:18:13.073Z,19.50
2019-05-21T20:20:46.565Z,19.40
2019-05-21T20:23:17.382Z,19.30
2019-05-21T20:25:55.979Z,19.20
2019-05-21T20:28:23.853Z,19.20
2019-05-21T20:31:00.384Z,19.10
2019-05-21T20:33:35.893Z,19.00
2019-05-21T20:36:08.897Z,19.00
2019-05-21T20:38:38.332Z,18.90
2019-05-21T20:41:19.911Z,18.80
2019-05-21T20:43:58.968Z,18.80
2019-05-21T20:46:27.430Z,18.70
2019-05-21T20:49:00.523Z,18.60
2019-05-21T20:51:33.785Z,18.60
2019-05-21T20:54:18.889Z,18.40
2019-05-21T20:56:52.923Z,18.40
2019-05-21T20:59:21.972Z,18.20
2019-05-21T21:01:52.447Z,18.20
2019-05-21T21:04:21.069Z,18.10
2019-05-21T21:06:49.965Z,18.00
2019-05-21T21:09:18.969Z,18.00
2019-05-21T21:11:47.614Z,18.00
2019-05-21T21:14:18.343Z,17.90
2019-05-21T21:16:47.238Z,17.80
2019-05-21T21:19:15.786Z,17.80
2019-05-21T21:21:44.480Z,17.70
2019-05-21T21:24:13.117Z,17.80
2019-05-21T21:26:42.273Z,17.70
2019-05-21T21:29:11.893Z,17.70
2019-05-21T21:31:40.825Z,17.70
2019-05-21T21:34:09.471Z,17.60
2019-05-21T21:36:39.281Z,17.60
2019-05-21T21:39:09.974Z,17.60
2019-05-21T21:41:38.581Z,17.60
2019-05-21T21:44:07.092Z,17.60
2019-05-21T21:46:36.327Z,17.60
2019-05-21T21:49:05.880Z,17.50
2019-05-21T21:51:34.817Z,17.50
2019-05-21T21:54:04.067Z,17.40
2019-05-21T21:56:32.480Z,17.30
2019-05-21T21:59:00.968Z,17.20
2019-05-21T22:01:49.696Z,17.10
2019-05-21T22:04:23.711Z,17.00
2019-05-21T22:06:52.429Z,16.90
2019-05-21T22:09:27.508Z,16.80
2019-05-21T22:11:56.348Z,16.70
2019-05-21T22:14:25.064Z,16.60
2019-05-21T22:16:54.470Z,16.50
2019-05-21T22:19:23.206Z,16.40
2019-05-21T22:21:52.888Z,16.40
2019-05-21T22:24:21.888Z,16.40
2019-05-21T22:26:50.917Z,16.30
2019-05-21T22:29:19.723Z,16.30
2019-05-21T22:31:48.772Z,16.30
2019-05-21T22:34:18.099Z,16.20
2019-05-21T22:36:46.572Z,16.30
2019-05-21T22:39:33.843Z,16.20
2019-05-21T22:42:02.544Z,16.20
2019-05-21T22:44:31.394Z,16.00
2019-05-21T22:47:00.390Z,15.90
2019-05-21T22:49:33.716Z,15.80
2019-05-21T22:52:00.323Z,15.70
2019-05-21T22:54:29.011Z,15.60
2019-05-21T22:56:57.841Z,15.60
2019-05-21T22:59:26.433Z,15.50
2019-05-21T23:01:57.164Z,15.50
2019-05-21T23:04:25.877Z,15.40
2019-05-21T23:06:54.300Z,15.30
2019-05-21T23:09:23.094Z,15.30
2019-05-21T23:14:28.710Z,15.30
2019-05-21T23:16:57.459Z,15.40
2019-05-21T23:19:29.055Z,15.40
2019-05-21T23:21:58.744Z,15.40
2019-05-21T23:24:28.334Z,15.40
2019-05-21T23:26:57.471Z,15.40
2019-05-21T23:29:26.412Z,15.50
2019-05-21T23:31:55.241Z,15.60
2019-05-21T23:34:24.328Z,15.70
2019-05-21T23:36:54.976Z,15.70
2019-05-21T23:39:26.171Z,15.70
2019-05-21T23:41:55.485Z,15.70
2019-05-21T23:44:24.293Z,15.70
2019-05-21T23:46:52.933Z,15.70
2019-05-21T23:49:21.964Z,15.70
2019-05-21T23:51:50.583Z,15.70
2019-05-21T23:54:19.475Z,15.70
2019-05-21T23:56:48.069Z,15.70
2019-05-21T23:59:16.909Z,15.70
